OARZ weather

Razer Airport
Badakhshan Province, Afghanistan

Public forecast

Using degrees Celsius for public forecast. Weather courtesy of forecast.io.

Closest aviation weather report (METAR) to Razer Airport

Report is more than 6 hours old.

Closest report is Fayzabad Airport, 67.1 nm (124.2 km) N. Retrieved 2012/10/14 04:50 UTC (7 years ago):

OAFZ 140450Z VRB02KT 9999 BKN250 18/00 Q1025 BLU/

Closest aviation forecast (TAF) to Razer Airport

Forecast is more than 12 hours old.

Closest forecast is Fayzabad Airport, 67.1 nm (124.2 km) N. Retrieved 2012/10/13 00:00 UTC (7 years ago):

TAF OAFZ 132305Z 1400/1424 VRB05KT 9999 NSW SCT240 BECMG 1402/1405 24007KT 9999 NSW SCT090 BKN150 TEMPO 1412/1424 26003KT 6000 RA BKN040 OVC080 BY OAMS